createdAt,value
2018-07-22T00:00:32.464Z,5.70
2018-07-22T00:03:03.332Z,5.30
2018-07-22T00:05:34.222Z,5.33
2018-07-22T00:08:06.089Z,5.33
2018-07-22T00:10:37.268Z,4.87
2018-07-22T00:13:07.867Z,5.20
2018-07-22T00:15:37.939Z,5.00
2018-07-22T00:18:08.698Z,5.40
2018-07-22T00:20:40.121Z,5.40
2018-07-22T00:23:10.693Z,5.30
2018-07-22T00:25:41.377Z,5.27
2018-07-22T00:28:12.709Z,5.63
2018-07-22T00:30:42.810Z,5.13
2018-07-22T00:33:13.346Z,5.20
2018-07-22T00:35:44.057Z,5.23
2018-07-22T00:38:14.703Z,5.43
2018-07-22T00:40:45.301Z,5.97
2018-07-22T00:43:15.887Z,5.63
2018-07-22T00:45:46.948Z,7.10
2018-07-22T00:48:18.179Z,6.80
2018-07-22T00:50:48.619Z,5.73
2018-07-22T00:53:19.272Z,5.20
2018-07-22T00:55:49.768Z,6.23
2018-07-22T00:58:20.414Z,6.23
2018-07-22T01:00:50.973Z,6.10
2018-07-22T01:03:21.627Z,6.80
2018-07-22T01:05:52.839Z,6.40
2018-07-22T01:08:23.923Z,6.63
2018-07-22T01:10:54.342Z,5.73
2018-07-22T01:13:24.956Z,5.87
2018-07-22T01:15:55.697Z,5.57
2018-07-22T01:18:26.537Z,5.73
2018-07-22T01:20:57.330Z,5.40
2018-07-22T01:23:28.133Z,6.63
2018-07-22T01:25:59.728Z,5.67
2018-07-22T01:28:30.522Z,5.57
2018-07-22T01:31:01.409Z,6.27
2018-07-22T01:33:31.937Z,5.73
2018-07-22T01:36:02.342Z,5.67
2018-07-22T01:38:32.785Z,5.70
2018-07-22T01:41:03.331Z,7.30
2018-07-22T01:43:34.284Z,6.87
2018-07-22T01:46:06.073Z,7.30
2018-07-22T01:48:36.185Z,7.27
2018-07-22T01:51:06.735Z,7.07
2018-07-22T01:53:37.364Z,7.37
2018-07-22T01:56:08.007Z,6.93
2018-07-22T01:58:38.611Z,6.57
2018-07-22T02:01:09.184Z,5.90
2018-07-22T02:03:40.172Z,6.43
2018-07-22T02:06:11.219Z,6.40
2018-07-22T02:08:41.790Z,6.27
2018-07-22T02:11:12.395Z,6.77
2018-07-22T02:13:45.725Z,6.57
2018-07-22T02:16:16.158Z,6.30
2018-07-22T02:18:46.562Z,6.00
2018-07-22T02:21:17.886Z,5.97
2018-07-22T02:23:49.105Z,6.63
2018-07-22T02:26:20.185Z,7.17
2018-07-22T02:28:50.694Z,6.57
2018-07-22T02:31:21.313Z,6.67
2018-07-22T02:33:51.766Z,6.73
2018-07-22T02:36:22.321Z,7.37
2018-07-22T02:38:52.993Z,8.00
2018-07-22T02:41:24.205Z,7.13
2018-07-22T02:43:55.134Z,7.60
2018-07-22T02:46:25.941Z,7.37
2018-07-22T02:48:56.375Z,7.23
2018-07-22T02:51:26.815Z,6.97
2018-07-22T02:53:57.358Z,7.23
2018-07-22T02:56:27.990Z,8.10
2018-07-22T02:58:58.089Z,7.10
2018-07-22T03:01:30.232Z,7.17
2018-07-22T03:04:00.431Z,7.33
2018-07-22T03:06:32.459Z,7.63
2018-07-22T03:09:03.299Z,7.90
2018-07-22T03:11:33.774Z,7.57
2018-07-22T03:14:04.206Z,7.77
2018-07-22T03:16:34.744Z,7.70
2018-07-22T03:19:05.665Z,7.60
2018-07-22T03:21:37.075Z,8.33
2018-07-22T03:24:07.846Z,8.03
2018-07-22T03:26:38.457Z,7.97
2018-07-22T03:29:09.099Z,8.93
2018-07-22T03:31:39.616Z,8.87
2018-07-22T03:34:11.078Z,8.73
2018-07-22T03:36:41.814Z,8.63
2018-07-22T03:39:13.131Z,8.23
2018-07-22T03:41:43.821Z,8.87
2018-07-22T03:44:14.291Z,8.33
2018-07-22T03:46:44.939Z,8.40
2018-07-22T03:49:15.331Z,8.17
2018-07-22T03:51:45.914Z,10.60
2018-07-22T03:54:17.231Z,7.87
2018-07-22T03:56:48.174Z,11.23
2018-07-22T03:59:19.539Z,9.37
2018-07-22T04:01:50.187Z,7.77
2018-07-22T04:04:21.268Z,10.37
2018-07-22T04:06:52.138Z,11.63
2018-07-22T04:09:23.312Z,10.80
2018-07-22T04:11:53.983Z,12.37
2018-07-22T04:14:24.645Z,9.70
2018-07-22T04:16:56.687Z,7.07
2018-07-22T04:19:27.482Z,8.80
2018-07-22T04:21:58.180Z,8.07
2018-07-22T04:24:28.609Z,14.53
2018-07-22T04:26:59.279Z,11.30
2018-07-22T04:29:29.748Z,7.13
2018-07-22T04:32:00.293Z,8.33
2018-07-22T04:34:31.548Z,7.70
2018-07-22T04:37:03.217Z,7.43
2018-07-22T04:39:33.863Z,7.87
2018-07-22T04:42:04.533Z,7.40
2018-07-22T04:44:35.176Z,9.50
2018-07-22T04:47:05.734Z,9.90
2018-07-22T04:49:36.336Z,10.00
2018-07-22T04:52:06.920Z,9.50
2018-07-22T04:54:38.599Z,8.93
2018-07-22T04:57:09.409Z,9.00
2018-07-22T04:59:40.072Z,9.13
2018-07-22T05:02:10.715Z,9.20
2018-07-22T05:04:41.260Z,9.10
2018-07-22T05:07:11.859Z,8.03
2018-07-22T05:09:42.307Z,7.07
2018-07-22T05:12:12.933Z,5.93
2018-07-22T05:14:44.370Z,6.97
2018-07-22T05:17:15.549Z,5.77
2018-07-22T05:19:46.111Z,8.50
2018-07-22T05:22:16.709Z,8.07
2018-07-22T05:24:47.176Z,7.70
2018-07-22T05:27:17.729Z,7.90
2018-07-22T05:29:48.309Z,7.47
2018-07-22T05:32:19.418Z,8.93
2018-07-22T05:34:50.944Z,6.10
2018-07-22T05:37:21.541Z,7.10
2018-07-22T05:39:51.658Z,6.50
2018-07-22T05:42:22.181Z,6.50
2018-07-22T05:44:53.079Z,5.20
2018-07-22T05:47:23.632Z,5.80
2018-07-22T05:49:54.279Z,6.40
2018-07-22T05:52:25.538Z,6.60
2018-07-22T05:54:57.484Z,6.23
2018-07-22T05:57:27.980Z,6.10
2018-07-22T05:59:58.437Z,5.70
2018-07-22T06:02:29.239Z,5.97
2018-07-22T06:04:59.897Z,6.00
2018-07-22T06:07:38.734Z,5.80
2018-07-22T06:10:10.092Z,5.70
2018-07-22T06:12:40.704Z,5.40
2018-07-22T06:15:11.426Z,4.60
2018-07-22T06:17:42.249Z,6.13
2018-07-22T06:20:12.830Z,5.23
2018-07-22T06:22:44.499Z,5.40
2018-07-22T06:25:15.571Z,5.80
2018-07-22T06:27:46.082Z,5.80
2018-07-22T06:30:16.740Z,5.63
2018-07-22T06:32:47.541Z,5.93
2018-07-22T06:35:17.687Z,9.80
2018-07-22T06:37:48.293Z,11.03
2018-07-22T06:40:18.981Z,9.03
2018-07-22T06:42:50.296Z,10.10
2018-07-22T06:45:23.012Z,8.23
2018-07-22T06:47:54.107Z,8.33
2018-07-22T06:50:24.855Z,7.63
2018-07-22T06:52:55.501Z,7.13
2018-07-22T06:55:26.992Z,6.70
2018-07-22T06:57:58.644Z,6.53
2018-07-22T07:00:34.959Z,6.27
2018-07-22T07:03:06.625Z,5.80
2018-07-22T07:05:37.261Z,5.80
2018-07-22T07:08:07.641Z,5.67
2018-07-22T07:10:38.603Z,5.00
2018-07-22T07:13:09.318Z,5.27
2018-07-22T07:15:39.444Z,4.90
2018-07-22T07:18:11.180Z,4.80
2018-07-22T07:20:42.255Z,4.50
2018-07-22T07:23:13.620Z,5.73
2018-07-22T07:25:45.450Z,4.70
2018-07-22T07:28:16.166Z,4.63
2018-07-22T07:30:47.763Z,4.80
2018-07-22T07:33:18.462Z,4.70
2018-07-22T07:35:50.232Z,4.57
2018-07-22T07:38:21.187Z,4.50
2018-07-22T07:40:52.132Z,4.70
2018-07-22T07:43:23.172Z,5.20
2018-07-22T07:45:53.875Z,4.50
2018-07-22T07:48:24.663Z,4.30
2018-07-22T07:50:55.304Z,4.40
2018-07-22T07:53:26.808Z,4.30
2018-07-22T07:55:58.045Z,4.60
2018-07-22T07:58:28.872Z,4.47
2018-07-22T08:00:59.510Z,4.27
2018-07-22T08:03:30.291Z,4.00
2018-07-22T08:06:01.041Z,4.00
2018-07-22T08:08:31.987Z,5.50
2018-07-22T08:11:02.625Z,4.00
2018-07-22T08:13:34.044Z,4.10
2018-07-22T08:16:05.386Z,4.03
2018-07-22T08:18:36.919Z,4.30
2018-07-22T08:21:08.350Z,4.30
2018-07-22T08:23:41.664Z,4.20
2018-07-22T08:26:12.499Z,4.23
2018-07-22T08:29:24.247Z,4.03
2018-07-22T08:31:57.758Z,4.13
2018-07-22T08:34:28.691Z,4.10
2018-07-22T08:37:00.181Z,4.20
2018-07-22T08:39:32.345Z,4.40
2018-07-22T08:42:03.568Z,4.20
2018-07-22T08:44:35.042Z,4.00
2018-07-22T08:47:06.719Z,4.17
2018-07-22T08:49:38.414Z,4.00
2018-07-22T08:52:08.843Z,4.10
2018-07-22T08:54:39.854Z,4.10
2018-07-22T08:57:10.420Z,8.63
2018-07-22T08:59:41.049Z,4.03
2018-07-22T09:02:11.904Z,4.13
2018-07-22T09:04:42.712Z,4.37
2018-07-22T09:07:14.182Z,4.20
2018-07-22T09:09:45.176Z,4.27
2018-07-22T09:12:15.784Z,4.33
2018-07-22T09:14:46.541Z,4.50
2018-07-22T09:17:16.947Z,3.80
2018-07-22T09:19:47.670Z,4.30
2018-07-22T09:22:18.389Z,3.90
2018-07-22T09:24:49.621Z,4.30
2018-07-22T09:27:21.247Z,3.90
2018-07-22T09:29:52.077Z,3.80
2018-07-22T09:32:22.735Z,3.90
2018-07-22T09:34:54.413Z,4.00
2018-07-22T09:37:25.053Z,3.70
2018-07-22T09:39:55.954Z,3.85
2018-07-22T09:42:27.042Z,4.10
2018-07-22T09:45:00.243Z,3.92
2018-07-22T09:47:32.704Z,4.20
2018-07-22T09:50:04.542Z,4.53
2018-07-22T09:52:35.107Z,3.77
2018-07-22T09:55:05.985Z,5.00
2018-07-22T09:57:36.956Z,3.63
2018-07-22T10:00:10.565Z,3.70
2018-07-22T10:02:43.098Z,4.27
2018-07-22T10:05:14.017Z,4.10
2018-07-22T10:07:45.732Z,4.30
2018-07-22T10:10:16.909Z,3.93
2018-07-22T10:12:48.176Z,3.93
2018-07-22T10:15:20.221Z,3.80
2018-07-22T10:17:52.549Z,4.00
2018-07-22T10:20:24.064Z,3.70
2018-07-22T10:22:54.857Z,3.77
2018-07-22T10:25:26.795Z,3.83
2018-07-22T10:27:57.817Z,3.93
2018-07-22T10:30:30.497Z,3.77
2018-07-22T10:33:01.676Z,4.00
2018-07-22T10:35:33.412Z,3.97
2018-07-22T10:38:05.630Z,3.67
2018-07-22T10:40:37.939Z,3.77
2018-07-22T10:43:08.794Z,3.93
2018-07-22T10:45:39.529Z,4.10
2018-07-22T10:48:10.379Z,4.27
2018-07-22T10:50:41.298Z,3.97
2018-07-22T10:53:13.051Z,4.10
2018-07-22T10:55:44.056Z,4.20
2018-07-22T10:58:14.742Z,4.17
2018-07-22T11:00:46.063Z,3.57
2018-07-22T11:03:16.827Z,3.90
2018-07-22T11:05:47.689Z,3.50
2018-07-22T11:08:19.014Z,3.80
2018-07-22T11:10:50.256Z,3.62
2018-07-22T11:13:21.718Z,3.80
2018-07-22T11:15:52.948Z,3.90
2018-07-22T11:18:30.720Z,4.30
2018-07-22T11:21:01.349Z,4.20
2018-07-22T11:23:32.063Z,3.90
2018-07-22T11:26:03.534Z,3.50
2018-07-22T11:28:35.220Z,3.75
2018-07-22T11:31:06.072Z,3.17
2018-07-22T11:33:36.814Z,3.15
2018-07-22T11:36:07.514Z,3.12
2018-07-22T11:38:39.299Z,3.70
2018-07-22T11:41:10.109Z,3.63
2018-07-22T11:43:40.937Z,3.80
2018-07-22T11:46:12.422Z,3.50
2018-07-22T11:48:43.841Z,3.60
2018-07-22T11:51:14.783Z,3.83
2018-07-22T11:53:45.595Z,3.00
2018-07-22T11:56:16.963Z,3.70
2018-07-22T11:58:48.456Z,3.37
2018-07-22T12:01:19.505Z,3.50
2018-07-22T12:03:51.492Z,2.83
2018-07-22T12:06:23.486Z,3.43
2018-07-22T12:08:55.045Z,3.00
2018-07-22T12:11:25.583Z,3.27
2018-07-22T12:13:57.096Z,3.30
2018-07-22T12:16:27.685Z,3.00
2018-07-22T12:18:59.514Z,2.80
2018-07-22T12:21:32.095Z,2.90
2018-07-22T12:24:04.233Z,3.00
2018-07-22T12:26:36.385Z,3.00
2018-07-22T12:29:08.222Z,3.20
2018-07-22T12:31:40.986Z,2.93
2018-07-22T12:34:13.853Z,2.60
2018-07-22T12:36:48.815Z,3.37
2018-07-22T12:39:21.708Z,2.70
2018-07-22T12:41:53.411Z,3.20
2018-07-22T12:44:24.519Z,3.00
2018-07-22T12:46:56.315Z,2.90
2018-07-22T12:49:28.866Z,3.07
2018-07-22T12:52:01.547Z,2.60
2018-07-22T12:54:33.289Z,3.00
2018-07-22T12:57:05.960Z,3.00
2018-07-22T12:59:37.692Z,3.00
2018-07-22T13:02:09.685Z,3.03
2018-07-22T13:04:41.924Z,2.93
2018-07-22T13:07:15.924Z,2.70
2018-07-22T13:09:50.622Z,2.60
2018-07-22T13:12:23.001Z,2.50
2018-07-22T13:14:57.222Z,2.80
2018-07-22T13:17:29.966Z,2.60
2018-07-22T13:20:02.865Z,2.70
2018-07-22T13:22:34.566Z,2.70
2018-07-22T13:25:06.772Z,2.40
2018-07-22T13:27:38.891Z,2.70
2018-07-22T13:30:11.303Z,2.80
2018-07-22T13:32:45.466Z,3.47
2018-07-22T13:35:19.198Z,2.73
2018-07-22T13:37:51.068Z,2.93
2018-07-22T13:40:24.001Z,2.93
2018-07-22T13:42:57.694Z,2.90
2018-07-22T13:45:30.810Z,2.80
2018-07-22T13:48:02.819Z,2.70
2018-07-22T13:50:34.868Z,3.83
2018-07-22T13:53:07.276Z,2.83
2018-07-22T13:55:38.942Z,2.73
2018-07-22T13:58:11.055Z,2.50
2018-07-22T14:00:43.094Z,2.87
2018-07-22T14:03:16.056Z,2.87
2018-07-22T14:05:48.084Z,2.50
2018-07-22T14:08:20.240Z,3.53
2018-07-22T14:10:52.518Z,3.00
2018-07-22T14:13:24.065Z,2.60
2018-07-22T14:15:55.957Z,4.57
2018-07-22T14:18:29.217Z,2.93
2018-07-22T14:21:01.289Z,2.50
2018-07-22T14:23:33.229Z,2.63
2018-07-22T14:26:05.613Z,3.00
2018-07-22T14:28:36.615Z,2.93
2018-07-22T14:31:08.398Z,2.80
2018-07-22T14:33:41.784Z,2.80
2018-07-22T14:36:13.993Z,3.30
2018-07-22T14:38:47.042Z,3.43
2018-07-22T14:41:18.870Z,3.50
2018-07-22T14:43:50.461Z,3.23
2018-07-22T14:46:22.178Z,3.80
2018-07-22T14:48:55.077Z,3.37
2018-07-22T14:51:27.465Z,3.30
2018-07-22T14:53:59.150Z,3.30
2018-07-22T14:56:31.583Z,3.90
2018-07-22T14:59:03.464Z,3.67
2018-07-22T15:01:35.506Z,3.53
2018-07-22T15:04:08.020Z,3.60
2018-07-22T15:06:39.648Z,3.37
2018-07-22T15:09:11.333Z,3.33
2018-07-22T15:11:42.733Z,3.77
2018-07-22T15:14:14.224Z,3.83
2018-07-22T15:16:45.353Z,3.50
2018-07-22T15:19:16.832Z,4.10
2018-07-22T15:21:48.822Z,4.13
2018-07-22T15:24:20.183Z,3.73
2018-07-22T15:26:51.338Z,3.67
2018-07-22T15:29:22.881Z,3.80
2018-07-22T15:31:54.139Z,4.40
2018-07-22T15:34:25.050Z,3.53
2018-07-22T15:36:57.839Z,3.53
2018-07-22T15:39:30.195Z,3.70
2018-07-22T15:42:01.835Z,4.00
2018-07-22T15:44:33.801Z,3.40
2018-07-22T15:47:05.531Z,6.70
2018-07-22T15:49:37.753Z,5.90
2018-07-22T15:52:10.426Z,3.83
2018-07-22T15:54:44.430Z,3.50
2018-07-22T15:57:18.267Z,3.70
2018-07-22T15:59:50.322Z,6.37
2018-07-22T16:02:22.116Z,3.90
2018-07-22T16:04:54.772Z,4.03
2018-07-22T16:07:27.933Z,3.40
2018-07-22T16:09:59.754Z,3.80
2018-07-22T16:12:31.615Z,3.80
2018-07-22T16:15:03.459Z,3.70
2018-07-22T16:17:35.202Z,3.80
2018-07-22T16:20:07.349Z,3.67
2018-07-22T16:22:40.888Z,3.43
2018-07-22T16:25:13.125Z,3.53
2018-07-22T16:27:44.762Z,3.63
2018-07-22T16:30:16.905Z,4.00
2018-07-22T16:32:48.685Z,3.50
2018-07-22T16:35:24.632Z,3.70
2018-07-22T16:37:57.255Z,3.80
2018-07-22T16:40:28.696Z,3.90
2018-07-22T16:43:00.240Z,3.20
2018-07-22T16:45:31.962Z,3.20
2018-07-22T16:48:03.631Z,3.33
2018-07-22T16:50:35.363Z,3.67
2018-07-22T16:53:07.196Z,3.60
2018-07-22T16:55:43.726Z,3.57
2018-07-22T16:58:14.782Z,3.23
2018-07-22T17:00:47.640Z,3.30
2018-07-22T17:03:19.619Z,3.30
2018-07-22T17:05:52.801Z,4.80
2018-07-22T17:08:25.711Z,4.23
2018-07-22T17:10:57.505Z,3.40
2018-07-22T17:13:31.027Z,3.60
2018-07-22T17:16:06.006Z,3.37
2018-07-22T17:18:37.557Z,3.20
2018-07-22T17:21:11.241Z,3.40
2018-07-22T17:23:43.194Z,3.47
2018-07-22T17:26:14.980Z,3.10
2018-07-22T17:28:46.902Z,3.73
2018-07-22T17:31:19.083Z,3.47
2018-07-22T17:33:50.801Z,3.40
2018-07-22T17:36:25.239Z,3.50
2018-07-22T17:38:57.653Z,3.47
2018-07-22T17:41:29.143Z,3.60
2018-07-22T17:44:00.843Z,3.03
2018-07-22T17:46:32.482Z,3.43
2018-07-22T17:49:04.243Z,3.73
2018-07-22T17:51:36.211Z,3.60
2018-07-22T17:54:08.487Z,3.40
2018-07-22T17:56:40.269Z,3.23
2018-07-22T17:59:11.231Z,3.43
2018-07-22T18:01:43.876Z,3.50
2018-07-22T18:04:15.849Z,3.63
2018-07-22T18:06:48.144Z,3.40
2018-07-22T18:09:21.937Z,3.60
2018-07-22T18:11:54.003Z,3.20
2018-07-22T18:14:26.676Z,4.40
2018-07-22T18:16:58.841Z,3.57
2018-07-22T18:19:30.601Z,3.97
2018-07-22T18:22:03.567Z,5.33
2018-07-22T18:24:35.450Z,7.20
2018-07-22T18:27:06.554Z,4.20
2018-07-22T18:29:38.508Z,3.90
2018-07-22T18:32:11.490Z,3.30
2018-07-22T18:34:43.324Z,3.67
2018-07-22T18:37:17.566Z,3.37
2018-07-22T18:39:50.571Z,3.80
2018-07-22T18:42:23.337Z,3.80
2018-07-22T18:44:58.670Z,3.77
2018-07-22T18:47:31.696Z,3.80
2018-07-22T18:50:04.483Z,3.80
2018-07-22T18:52:37.178Z,3.73
2018-07-22T18:55:08.943Z,3.77
2018-07-22T18:57:40.943Z,3.70
2018-07-22T19:00:14.198Z,3.63
2018-07-22T19:02:46.448Z,3.40
2018-07-22T19:05:19.876Z,4.30
2018-07-22T19:07:51.514Z,4.07
2018-07-22T19:10:24.659Z,4.17
2018-07-22T19:12:57.173Z,4.13
2018-07-22T19:15:31.053Z,3.87
2018-07-22T19:18:04.041Z,3.93
2018-07-22T19:20:36.481Z,4.27
2018-07-22T19:23:10.138Z,4.20
2018-07-22T19:25:43.477Z,4.43
2018-07-22T19:28:15.768Z,4.00
2018-07-22T19:30:48.374Z,3.83
2018-07-22T19:33:22.245Z,4.50
2018-07-22T19:35:55.917Z,4.97
2018-07-22T19:38:28.649Z,4.47
2018-07-22T19:41:00.968Z,4.53
2018-07-22T19:43:33.251Z,4.60
2018-07-22T19:46:05.252Z,4.23
2018-07-22T19:48:37.628Z,4.70
2018-07-22T19:51:10.202Z,3.60
2018-07-22T19:53:41.999Z,4.37
2018-07-22T19:56:13.862Z,3.80
2018-07-22T19:58:45.797Z,4.53
2018-07-22T20:01:19.819Z,4.50
2018-07-22T20:03:52.470Z,4.43
2018-07-22T20:06:24.998Z,3.93
2018-07-22T20:08:56.821Z,4.53
2018-07-22T20:11:29.506Z,4.30
2018-07-22T20:14:03.275Z,3.97
2018-07-22T20:16:37.534Z,4.37
2018-07-22T20:19:09.748Z,4.23
2018-07-22T20:21:42.455Z,4.30
2018-07-22T20:24:16.103Z,4.50
2018-07-22T20:26:48.937Z,4.43
2018-07-22T20:29:23.206Z,4.23
2018-07-22T20:31:55.448Z,4.30
2018-07-22T20:34:27.843Z,4.13
2018-07-22T20:36:59.639Z,4.07
2018-07-22T20:39:31.707Z,3.77
2018-07-22T20:42:04.790Z,3.77
2018-07-22T20:44:37.635Z,4.70
2018-07-22T20:47:09.541Z,4.10
2018-07-22T20:49:41.261Z,4.37
2018-07-22T20:52:13.030Z,3.90
2018-07-22T20:54:45.960Z,4.20
2018-07-22T20:57:19.124Z,4.20
2018-07-22T20:59:50.969Z,4.47
2018-07-22T21:02:21.931Z,4.53
2018-07-22T21:04:53.661Z,4.57
2018-07-22T21:07:26.056Z,4.53
2018-07-22T21:09:57.663Z,4.37
2018-07-22T21:12:54.443Z,4.47
2018-07-22T21:15:26.039Z,4.33
2018-07-22T21:17:57.765Z,4.40
2018-07-22T21:20:29.253Z,4.43
2018-07-22T21:23:00.309Z,4.50
2018-07-22T21:25:31.517Z,4.00
2018-07-22T21:28:02.757Z,4.10
2018-07-22T21:30:34.178Z,3.53
2018-07-22T21:33:05.398Z,3.83
2018-07-22T21:35:40.191Z,4.07
2018-07-22T21:38:11.476Z,4.37
2018-07-22T21:40:47.646Z,3.77
2018-07-22T21:43:18.344Z,5.40
2018-07-22T21:45:51.808Z,4.47
2018-07-22T21:48:22.745Z,4.20
2018-07-22T21:50:54.451Z,4.30
2018-07-22T21:53:26.688Z,4.10
2018-07-22T21:55:57.301Z,3.87
2018-07-22T21:58:28.362Z,4.27
2018-07-22T22:00:59.122Z,4.60
2018-07-22T22:03:29.898Z,4.23
2018-07-22T22:06:00.664Z,4.40
2018-07-22T22:08:31.591Z,4.43
2018-07-22T22:11:03.072Z,4.30
2018-07-22T22:13:34.395Z,4.03
2018-07-22T22:16:05.112Z,4.40
2018-07-22T22:18:35.756Z,3.93
2018-07-22T22:21:07.008Z,4.03
2018-07-22T22:23:37.547Z,4.00
2018-07-22T22:26:08.231Z,4.20
2018-07-22T22:28:39.053Z,4.30
2018-07-22T22:31:10.495Z,3.83
2018-07-22T22:33:40.499Z,4.40
2018-07-22T22:36:11.038Z,3.73
2018-07-22T22:38:41.553Z,3.97
2018-07-22T22:41:11.982Z,4.00
2018-07-22T22:43:42.658Z,4.20
2018-07-22T22:46:13.202Z,3.80
2018-07-22T22:48:44.003Z,3.80
2018-07-22T22:51:15.586Z,3.90
2018-07-22T22:53:46.140Z,4.40
2018-07-22T22:56:17.229Z,3.77
2018-07-22T22:59:04.763Z,4.37
2018-07-22T23:01:36.457Z,4.13
2018-07-22T23:04:07.098Z,3.83
2018-07-22T23:06:37.401Z,3.70
2018-07-22T23:09:11.708Z,4.13
2018-07-22T23:11:42.651Z,4.23
2018-07-22T23:14:13.372Z,4.30
2018-07-22T23:16:44.382Z,4.10
2018-07-22T23:19:15.882Z,4.20
2018-07-22T23:21:46.183Z,4.83
2018-07-22T23:24:16.890Z,4.27
2018-07-22T23:26:47.452Z,4.30
2018-07-22T23:29:18.151Z,4.00
2018-07-22T23:31:48.815Z,4.37
2018-07-22T23:34:19.017Z,4.60
2018-07-22T23:36:49.741Z,3.80
2018-07-22T23:39:21.491Z,4.33
2018-07-22T23:41:51.716Z,4.30
2018-07-22T23:44:23.213Z,4.30
2018-07-22T23:46:53.064Z,4.50
2018-07-22T23:49:23.745Z,4.10
2018-07-22T23:51:54.311Z,4.17
2018-07-22T23:54:24.953Z,4.50
2018-07-22T23:56:55.814Z,4.60
2018-07-22T23:59:27.161Z,4.80
